Airfield :
LOGIN :

Register | Disclaimer

   EN    FR    IT 

 










Legend :    VFR   Marginal VFR   IFR   Intensive IFR   Very Intensive IFR
Visi :
Ceiling :
>= 8 km
>= 3000ft
5 to 8 km
1000 to 3000 ft
1500m to 5 km
500 to 1000 ft
800 to 1500m
200 to 500 ft
< 800m
< 200 ft
Symbols :   Thunderstorms  Fog  Heavy snow  Heavy precipitations  Wind > 20 kt
SIGMETs :     Misc.  Thunderstorms  Icing  Turbulence  Mountain Waves  Volcanic Ashes






- Airport Elevation : 202 ft
- IATA code : LGW


EGKK - London Gatwick

CURRENT METAR :
  • 310420Z 19008KT 160V220 9999 BKN027 14/11 Q1016

EXPIRED METARs :
  • 310350Z 18006KT 150V210 9999 BKN030 13/12 Q1016
  • 310320Z 18007KT 9999 FEW009 BKN017 BKN030 13/12 Q1017
  • 310250Z 19008KT 9999 BKN006 13/12 Q1017
  • 310220Z 19009KT 160V220 6000 -DZ BKN006 13/13 Q1018
  • 310150Z 19009KT 160V230 4700 -DZ BKN006 13/13 Q1018

TAF AMD TAF EGKK
Valid from the 31 at 02:00 until the 01 at 06:00 UTC


310207Z 3102/0106 19008KT 9999 BKN005
TEMPO 3102/3104 4000 DZ
BECMG 3103/3105 SCT030
BECMG 3105/3108 18015G25KT
BECMG 3109/3112 19022G35KT
TEMPO 3111/3114 6000 RA
PROB40
TEMPO 3111/3114 3500 +RA BKN012
BECMG 3112/3114 23020G32KT
BECMG 3114/3117 24009KT
PROB30
TEMPO 3114/3116 7000 SHRA
PROB30
TEMPO 0101/0106 6000 -RADZ BKN012
BECMG 0104/0106 19015G25KT



MET'MAP, your aeronautical weather chart ! - Copyright ORBIFLY December 2007 - Disclaimer

ORBIFLY MET'MAP TEAM :

Programming & Development : Alexandra Zaïnal
Concept & original design : Baudouin d'Aumeries
Assistance for programming : Marc-Olivier Méhu
Technical & hardware support : Manuel Goepfert

Contact : metmap@orbifly.com




SOURCES & CREDITS :

   NOAA